sensor_id;sensor_type;location;lat;lon;timestamp;pressure;altitude;pressure_sealevel;temperature;humidity
30682;BME280;17439;48.092;11.842;2023-02-01T00:00:28;95945.03;;;5.97;56.59
30682;BME280;17439;48.092;11.842;2023-02-01T00:02:54;95952.00;;;5.98;56.42
30682;BME280;17439;48.092;11.842;2023-02-01T00:05:21;95942.56;;;5.95;56.66
30682;BME280;17439;48.092;11.842;2023-02-01T00:07:48;95946.88;;;5.96;56.62
30682;BME280;17439;48.092;11.842;2023-02-01T00:10:15;95937.75;;;5.97;56.60
30682;BME280;17439;48.092;11.842;2023-02-01T00:12:42;95931.56;;;5.97;56.65
30682;BME280;17439;48.092;11.842;2023-02-01T00:15:09;95942.84;;;5.99;56.53
30682;BME280;17439;48.092;11.842;2023-02-01T00:17:35;95930.47;;;5.98;56.65
30682;BME280;17439;48.092;11.842;2023-02-01T00:20:02;95931.56;;;5.97;56.46
30682;BME280;17439;48.092;11.842;2023-02-01T00:22:29;95930.75;;;6.02;56.50
30682;BME280;17439;48.092;11.842;2023-02-01T00:24:56;95931.56;;;5.97;56.23
30682;BME280;17439;48.092;11.842;2023-02-01T00:27:22;95929.94;;;6.01;56.09
30682;BME280;17439;48.092;11.842;2023-02-01T00:29:49;95932.34;;;6.03;56.12
30682;BME280;17439;48.092;11.842;2023-02-01T00:32:15;95927.78;;;6.03;56.26
30682;BME280;17439;48.092;11.842;2023-02-01T00:34:42;95922.94;;;6.05;56.40
30682;BME280;17439;48.092;11.842;2023-02-01T00:37:08;95918.66;;;6.09;56.47
30682;BME280;17439;48.092;11.842;2023-02-01T00:39:35;95915.13;;;6.09;56.26
30682;BME280;17439;48.092;11.842;2023-02-01T00:42:01;95921.06;;;6.11;56.12
30682;BME280;17439;48.092;11.842;2023-02-01T00:44:28;95918.06;;;6.12;56.06
30682;BME280;17439;48.092;11.842;2023-02-01T00:46:55;95915.94;;;6.14;56.09
30682;BME280;17439;48.092;11.842;2023-02-01T00:49:21;95911.34;;;6.15;56.01
30682;BME280;17439;48.092;11.842;2023-02-01T00:51:48;95910.81;;;6.18;55.73
30682;BME280;17439;48.092;11.842;2023-02-01T00:54:14;95906.22;;;6.18;55.23
30682;BME280;17439;48.092;11.842;2023-02-01T00:56:41;95906.22;;;6.18;55.44
30682;BME280;17439;48.092;11.842;2023-02-01T00:59:11;95914.31;;;6.18;55.15
30682;BME280;17439;48.092;11.842;2023-02-01T01:01:38;95911.34;;;6.15;55.34
30682;BME280;17439;48.092;11.842;2023-02-01T01:04:05;95911.34;;;6.15;55.34
30682;BME280;17439;48.092;11.842;2023-02-01T01:06:33;95913.25;;;6.14;55.79
30682;BME280;17439;48.092;11.842;2023-02-01T01:09:05;95908.66;;;6.10;56.08
30682;BME280;17439;48.092;11.842;2023-02-01T01:11:35;95926.16;;;6.02;56.82
30682;BME280;17439;48.092;11.842;2023-02-01T01:14:04;95914.56;;;5.91;57.03
30682;BME280;17439;48.092;11.842;2023-02-01T01:16:32;95919.97;;;5.81;57.63
30682;BME280;17439;48.092;11.842;2023-02-01T01:19:00;95916.97;;;5.72;58.10
30682;BME280;17439;48.092;11.842;2023-02-01T01:21:27;95915.38;;;5.61;58.76
30682;BME280;17439;48.092;11.842;2023-02-01T01:23:54;95913.47;;;5.51;59.03
30682;BME280;17439;48.092;11.842;2023-02-01T01:26:24;95905.41;;;5.41;59.89
30682;BME280;17439;48.092;11.842;2023-02-01T01:28:51;95911.00;;;5.34;59.96
30682;BME280;17439;48.092;11.842;2023-02-01T01:31:19;95903.22;;;5.27;60.35
30682;BME280;17439;48.092;11.842;2023-02-01T01:33:50;95895.94;;;5.18;61.27
30682;BME280;17439;48.092;11.842;2023-02-01T01:36:18;95904.53;;;5.15;61.07
30682;BME280;17439;48.092;11.842;2023-02-01T01:38:45;95897.53;;;5.14;61.43
30682;BME280;17439;48.092;11.842;2023-02-01T01:41:17;95902.34;;;5.06;61.96
30682;BME280;17439;48.092;11.842;2023-02-01T01:46:38;95896.41;;;4.99;62.62
30682;BME280;17439;48.092;11.842;2023-02-01T01:51:36;95886.75;;;4.98;62.72
30682;BME280;17439;48.092;11.842;2023-02-01T01:54:11;95887.00;;;4.97;63.24
30682;BME280;17439;48.092;11.842;2023-02-01T01:56:38;95871.94;;;4.96;63.60
30682;BME280;17439;48.092;11.842;2023-02-01T01:59:06;95883.53;;;5.01;63.41
30682;BME280;17439;48.092;11.842;2023-02-01T02:01:34;95869.00;;;5.02;63.62
30682;BME280;17439;48.092;11.842;2023-02-01T02:04:01;95853.69;;;4.98;64.03
30682;BME280;17439;48.092;11.842;2023-02-01T02:06:40;95848.88;;;5.00;63.98
30682;BME280;17439;48.092;11.842;2023-02-01T02:09:09;95853.97;;;5.01;64.07
30682;BME280;17439;48.092;11.842;2023-02-01T02:11:35;95854.50;;;5.03;64.06
30682;BME280;17439;48.092;11.842;2023-02-01T02:14:04;95849.13;;;5.03;64.10
30682;BME280;17439;48.092;11.842;2023-02-01T02:19:26;95848.59;;;5.01;64.35
30682;BME280;17439;48.092;11.842;2023-02-01T02:26:23;95851.28;;;5.01;64.67
30682;BME280;17439;48.092;11.842;2023-02-01T02:33:59;95862.00;;;4.96;64.86
30682;BME280;17439;48.092;11.842;2023-02-01T02:39:14;95859.34;;;5.01;64.94
30682;BME280;17439;48.092;11.842;2023-02-01T02:42:02;95860.94;;;5.02;64.92
30682;BME280;17439;48.092;11.842;2023-02-01T02:44:39;95865.53;;;5.02;65.20
30682;BME280;17439;48.092;11.842;2023-02-01T02:47:15;95863.63;;;5.02;65.19
30682;BME280;17439;48.092;11.842;2023-02-01T02:52:30;95857.47;;;5.07;65.28
30682;BME280;17439;48.092;11.842;2023-02-01T02:54:59;95855.59;;;5.07;65.28
30682;BME280;17439;48.092;11.842;2023-02-01T02:57:30;95851.81;;;5.08;65.39
30682;BME280;17439;48.092;11.842;2023-02-01T03:00:00;95845.91;;;5.06;65.19
30682;BME280;17439;48.092;11.842;2023-02-01T03:02:29;95850.75;;;5.09;65.28
30682;BME280;17439;48.092;11.842;2023-02-01T03:04:57;95844.28;;;5.05;65.09
30682;BME280;17439;48.092;11.842;2023-02-01T03:10:17;95852.34;;;5.11;65.18
30682;BME280;17439;48.092;11.842;2023-02-01T03:12:52;95844.31;;;5.16;65.30
30682;BME280;17439;48.092;11.842;2023-02-01T03:15:21;95842.19;;;5.18;65.13
30682;BME280;17439;48.092;11.842;2023-02-01T03:17:51;95844.31;;;5.16;65.42
30682;BME280;17439;48.092;11.842;2023-02-01T03:20:20;95835.16;;;5.17;65.44
30682;BME280;17439;48.092;11.842;2023-02-01T03:22:48;95838.16;;;5.20;65.37
30682;BME280;17439;48.092;11.842;2023-02-01T03:25:21;95822.28;;;5.19;65.42
30682;BME280;17439;48.092;11.842;2023-02-01T03:27:54;95829.00;;;5.16;65.31
30682;BME280;17439;48.092;11.842;2023-02-01T03:30:27;95830.88;;;5.21;65.44
30682;BME280;17439;48.092;11.842;2023-02-01T03:32:57;95834.09;;;5.23;65.31
30682;BME280;17439;48.092;11.842;2023-02-01T03:35:51;95836.53;;;5.24;64.98
30682;BME280;17439;48.092;11.842;2023-02-01T03:38:55;95827.66;;;5.24;64.97
30682;BME280;17439;48.092;11.842;2023-02-01T03:44:06;95830.09;;;5.31;64.87
30682;BME280;17439;48.092;11.842;2023-02-01T03:46:43;95828.50;;;5.35;64.81
30682;BME280;17439;48.092;11.842;2023-02-01T03:49:19;95824.44;;;5.37;64.84
30682;BME280;17439;48.092;11.842;2023-02-01T03:51:50;95825.78;;;5.40;64.97
30682;BME280;17439;48.092;11.842;2023-02-01T03:54:18;95820.16;;;5.41;65.13
30682;BME280;17439;48.092;11.842;2023-02-01T03:56:47;95825.00;;;5.44;64.97
30682;BME280;17439;48.092;11.842;2023-02-01T03:59:15;95813.69;;;5.48;65.04
30682;BME280;17439;48.092;11.842;2023-02-01T04:01:41;95815.28;;;5.49;64.95
30682;BME280;17439;48.092;11.842;2023-02-01T04:04:09;95802.94;;;5.48;64.93
30682;BME280;17439;48.092;11.842;2023-02-01T04:06:37;95812.34;;;5.50;64.89
30682;BME280;17439;48.092;11.842;2023-02-01T04:09:04;95806.97;;;5.50;64.91
30682;BME280;17439;48.092;11.842;2023-02-01T04:11:31;95800.25;;;5.53;64.68
30682;BME280;17439;48.092;11.842;2023-02-01T04:13:57;95811.53;;;5.50;64.53
30682;BME280;17439;48.092;11.842;2023-02-01T04:16:24;95795.41;;;5.50;64.24
30682;BME280;17439;48.092;11.842;2023-02-01T04:18:51;95809.38;;;5.52;64.48
30682;BME280;17439;48.092;11.842;2023-02-01T04:21:23;95809.38;;;5.52;64.18
30682;BME280;17439;48.092;11.842;2023-02-01T04:23:50;95814.50;;;5.53;64.28
30682;BME280;17439;48.092;11.842;2023-02-01T04:26:16;95812.63;;;5.54;63.96
30682;BME280;17439;48.092;11.842;2023-02-01T04:28:43;95800.78;;;5.55;64.32
30682;BME280;17439;48.092;11.842;2023-02-01T04:31:09;95801.88;;;5.54;63.97
30682;BME280;17439;48.092;11.842;2023-02-01T04:33:36;95810.47;;;5.56;64.12
30682;BME280;17439;48.092;11.842;2023-02-01T04:36:03;95811.00;;;5.58;64.13
30682;BME280;17439;48.092;11.842;2023-02-01T04:38:29;95808.31;;;5.58;63.99
30682;BME280;17439;48.092;11.842;2023-02-01T04:40:56;95802.94;;;5.58;63.88
30682;BME280;17439;48.092;11.842;2023-02-01T04:43:23;95805.63;;;5.58;63.78
30682;BME280;17439;48.092;11.842;2023-02-01T04:45:50;95797.28;;;5.59;63.80
30682;BME280;17439;48.092;11.842;2023-02-01T04:48:18;95793.25;;;5.62;63.56
30682;BME280;17439;48.092;11.842;2023-02-01T04:50:46;95795.13;;;5.61;63.55
30682;BME280;17439;48.092;11.842;2023-02-01T04:53:15;95794.03;;;5.62;63.09
30682;BME280;17439;48.092;11.842;2023-02-01T04:55:43;95789.75;;;5.67;63.17
30682;BME280;17439;48.092;11.842;2023-02-01T04:58:10;95807.22;;;5.64;63.31
30682;BME280;17439;48.092;11.842;2023-02-01T05:00:37;95810.19;;;5.68;63.23
30682;BME280;17439;48.092;11.842;2023-02-01T05:03:04;95802.94;;;5.68;62.90
30682;BME280;17439;48.092;11.842;2023-02-01T05:05:30;95809.91;;;5.69;63.04
30682;BME280;17439;48.092;11.842;2023-02-01T05:07:57;95800.50;;;5.72;63.00
30682;BME280;17439;48.092;11.842;2023-02-01T05:10:24;95803.19;;;5.72;63.06
30682;BME280;17439;48.092;11.842;2023-02-01T05:12:51;95796.19;;;5.71;62.89
30682;BME280;17439;48.092;11.842;2023-02-01T05:15:17;95799.16;;;5.69;62.83
30682;BME280;17439;48.092;11.842;2023-02-01T05:17:44;95790.53;;;5.72;62.78
30682;BME280;17439;48.092;11.842;2023-02-01T05:20:10;95795.66;;;5.74;62.63
30682;BME280;17439;48.092;11.842;2023-02-01T05:22:37;95804.00;;;5.72;62.14
30682;BME280;17439;48.092;11.842;2023-02-01T05:25:04;95806.41;;;5.74;62.16
30682;BME280;17439;48.092;11.842;2023-02-01T05:27:33;95795.38;;;5.75;62.10
30682;BME280;17439;48.092;11.842;2023-02-01T05:30:01;95801.59;;;5.76;62.35
30682;BME280;17439;48.092;11.842;2023-02-01T05:32:28;95808.56;;;5.77;62.26
30682;BME280;17439;48.092;11.842;2023-02-01T05:34:55;95796.72;;;5.78;61.87
30682;BME280;17439;48.092;11.842;2023-02-01T05:37:21;95798.06;;;5.80;61.63
30682;BME280;17439;48.092;11.842;2023-02-01T05:39:48;95810.72;;;5.80;61.61
30682;BME280;17439;48.092;11.842;2023-02-01T05:42:14;95802.91;;;5.78;61.38
30682;BME280;17439;48.092;11.842;2023-02-01T05:44:41;95807.50;;;5.78;61.59
30682;BME280;17439;48.092;11.842;2023-02-01T05:47:08;95808.53;;;5.82;61.15
30682;BME280;17439;48.092;11.842;2023-02-01T05:49:34;95813.94;;;5.82;61.17
30682;BME280;17439;48.092;11.842;2023-02-01T05:52:01;95811.50;;;5.80;61.36
30682;BME280;17439;48.092;11.842;2023-02-01T05:54:27;95808.53;;;5.82;61.20
30682;BME280;17439;48.092;11.842;2023-02-01T05:56:54;95803.44;;;5.80;60.86
30682;BME280;17439;48.092;11.842;2023-02-01T05:59:21;95787.06;;;5.72;59.87
30682;BME280;17439;48.092;11.842;2023-02-01T06:01:47;95782.47;;;5.77;60.96
30682;BME280;17439;48.092;11.842;2023-02-01T06:04:14;95783.56;;;5.71;61.13
30682;BME280;17439;48.092;11.842;2023-02-01T06:06:41;95777.66;;;5.74;61.04
30682;BME280;17439;48.092;11.842;2023-02-01T06:09:07;95802.94;;;5.68;60.76
30682;BME280;17439;48.092;11.842;2023-02-01T06:11:34;95788.94;;;5.76;60.84
30682;BME280;17439;48.092;11.842;2023-02-01T06:14:00;95784.63;;;5.75;60.92
30682;BME280;17439;48.092;11.842;2023-02-01T06:16:27;95780.34;;;5.74;60.74
30682;BME280;17439;48.092;11.842;2023-02-01T06:18:54;95773.88;;;5.70;60.84
30682;BME280;17439;48.092;11.842;2023-02-01T06:21:21;95794.03;;;5.68;60.71
30682;BME280;17439;48.092;11.842;2023-02-01T06:23:47;95779.25;;;5.65;60.61
30682;BME280;17439;48.092;11.842;2023-02-01T06:26:14;95788.94;;;5.66;60.80
30682;BME280;17439;48.092;11.842;2023-02-01T06:28:40;95783.53;;;5.66;60.90
30682;BME280;17439;48.092;11.842;2023-02-01T06:31:07;95780.59;;;5.62;60.89
30682;BME280;17439;48.092;11.842;2023-02-01T06:33:35;95779.81;;;5.62;60.78
30682;BME280;17439;48.092;11.842;2023-02-01T06:36:05;95777.41;;;5.55;59.86
30682;BME280;17439;48.092;11.842;2023-02-01T06:38:33;95799.44;;;5.57;60.52
30682;BME280;17439;48.092;11.842;2023-02-01T06:41:00;95818.53;;;5.61;60.74
30682;BME280;17439;48.092;11.842;2023-02-01T06:43:27;95803.19;;;5.56;60.67
30682;BME280;17439;48.092;11.842;2023-02-01T06:46:02;95799.19;;;5.54;60.24
30682;BME280;17439;48.092;11.842;2023-02-01T06:48:30;95806.72;;;5.57;60.68
30682;BME280;17439;48.092;11.842;2023-02-01T06:50:57;95800.25;;;5.58;60.70
30682;BME280;17439;48.092;11.842;2023-02-01T06:53:23;95792.44;;;5.61;60.69
30682;BME280;17439;48.092;11.842;2023-02-01T06:55:54;95797.81;;;5.61;60.69
30682;BME280;17439;48.092;11.842;2023-02-01T06:58:21;95783.81;;;5.59;60.84
30682;BME280;17439;48.092;11.842;2023-02-01T07:00:48;95799.16;;;5.59;60.59
30682;BME280;17439;48.092;11.842;2023-02-01T07:03:14;95799.16;;;5.59;60.52
30682;BME280;17439;48.092;11.842;2023-02-01T07:05:41;95800.78;;;5.60;60.57
30682;BME280;17439;48.092;11.842;2023-02-01T07:08:08;95803.19;;;5.61;60.82
30682;BME280;17439;48.092;11.842;2023-02-01T07:10:34;95797.00;;;5.61;60.58
30682;BME280;17439;48.092;11.842;2023-02-01T07:13:01;95789.75;;;5.56;60.41
30682;BME280;17439;48.092;11.842;2023-02-01T07:15:27;95796.22;;;5.55;60.61
30682;BME280;17439;48.092;11.842;2023-02-01T07:17:55;95790.56;;;5.57;60.75
30682;BME280;17439;48.092;11.842;2023-02-01T07:20:21;95802.94;;;5.58;60.56
30682;BME280;17439;48.092;11.842;2023-02-01T07:22:54;95783.03;;;5.59;60.30
30682;BME280;17439;48.092;11.842;2023-02-01T07:25:21;95779.53;;;5.58;60.34
30682;BME280;17439;48.092;11.842;2023-02-01T07:27:48;95786.00;;;5.57;60.52
30682;BME280;17439;48.092;11.842;2023-02-01T07:30:14;95777.94;;;5.57;60.23
30682;BME280;17439;48.092;11.842;2023-02-01T07:32:41;95773.31;;;5.63;60.62
30682;BME280;17439;48.092;11.842;2023-02-01T07:35:08;95787.31;;;5.55;60.23
30682;BME280;17439;48.092;11.842;2023-02-01T07:37:35;95766.91;;;5.59;60.42
30682;BME280;17439;48.092;11.842;2023-02-01T07:40:01;95756.91;;;5.64;60.70
30682;BME280;17439;48.092;11.842;2023-02-01T07:42:28;95746.69;;;5.61;60.41
30682;BME280;17439;48.092;11.842;2023-02-01T07:44:54;95749.13;;;5.63;59.77
30682;BME280;17439;48.092;11.842;2023-02-01T07:47:21;95766.09;;;5.58;60.18
30682;BME280;17439;48.092;11.842;2023-02-01T07:49:47;95755.31;;;5.69;60.09
30682;BME280;17439;48.092;11.842;2023-02-01T07:52:14;95758.53;;;5.71;60.04
30682;BME280;17439;48.092;11.842;2023-02-01T07:54:41;95770.13;;;5.71;60.09
30682;BME280;17439;48.092;11.842;2023-02-01T07:57:07;95767.41;;;5.76;60.15
30682;BME280;17439;48.092;11.842;2023-02-01T07:59:34;95774.94;;;5.74;59.97
30682;BME280;17439;48.092;11.842;2023-02-01T08:02:00;95770.13;;;5.71;59.97
30682;BME280;17439;48.092;11.842;2023-02-01T08:04:27;95775.72;;;5.80;60.13
30682;BME280;17439;48.092;11.842;2023-02-01T08:06:53;95777.09;;;5.82;59.61
30682;BME280;17439;48.092;11.842;2023-02-01T08:09:20;95779.22;;;5.86;59.69
30682;BME280;17439;48.092;11.842;2023-02-01T08:11:46;95800.75;;;5.91;59.68
30682;BME280;17439;48.092;11.842;2023-02-01T08:14:13;95795.63;;;5.89;59.81
30682;BME280;17439;48.092;11.842;2023-02-01T08:16:39;95803.97;;;5.93;59.63
30682;BME280;17439;48.092;11.842;2023-02-01T08:19:06;95802.09;;;5.98;59.72
30682;BME280;17439;48.092;11.842;2023-02-01T08:21:33;95818.25;;;5.98;59.63
30682;BME280;17439;48.092;11.842;2023-02-01T08:23:59;95816.88;;;6.01;59.57
30682;BME280;17439;48.092;11.842;2023-02-01T08:26:26;95811.50;;;5.96;59.38
30682;BME280;17439;48.092;11.842;2023-02-01T08:28:55;95836.28;;;5.98;58.81
30682;BME280;17439;48.092;11.842;2023-02-01T08:31:23;95830.91;;;6.03;59.37
30682;BME280;17439;48.092;11.842;2023-02-01T08:33:55;95831.97;;;6.02;58.33
30682;BME280;17439;48.092;11.842;2023-02-01T08:36:23;95832.22;;;6.06;59.04
30682;BME280;17439;48.092;11.842;2023-02-01T08:38:51;95829.81;;;6.04;58.68
30682;BME280;17439;48.092;11.842;2023-02-01T08:41:23;95826.84;;;6.06;57.84
30682;BME280;17439;48.092;11.842;2023-02-01T08:43:50;95828.72;;;6.10;59.22
30682;BME280;17439;48.092;11.842;2023-02-01T08:46:17;95810.41;;;6.12;58.97
30682;BME280;17439;48.092;11.842;2023-02-01T08:48:46;95814.97;;;6.12;58.60
30682;BME280;17439;48.092;11.842;2023-02-01T08:51:14;95834.63;;;6.17;59.07
30682;BME280;17439;48.092;11.842;2023-02-01T08:53:41;95820.38;;;6.07;57.54
30682;BME280;17439;48.092;11.842;2023-02-01T08:56:10;95829.53;;;6.16;58.04
30682;BME280;17439;48.092;11.842;2023-02-01T08:58:37;95820.34;;;6.17;58.27
30682;BME280;17439;48.092;11.842;2023-02-01T09:01:08;95806.91;;;6.12;56.44
30682;BME280;17439;48.092;11.842;2023-02-01T09:03:35;95804.19;;;6.17;57.83
30682;BME280;17439;48.092;11.842;2023-02-01T09:06:03;95815.22;;;6.26;58.20
30682;BME280;17439;48.092;11.842;2023-02-01T09:08:31;95823.53;;;6.29;57.95
30682;BME280;17439;48.092;11.842;2023-02-01T09:11:03;95830.00;;;6.33;56.61
30682;BME280;17439;48.092;11.842;2023-02-01T09:13:30;95819.50;;;6.37;57.51
30682;BME280;17439;48.092;11.842;2023-02-01T09:15:57;95833.19;;;6.46;57.19
30682;BME280;17439;48.092;11.842;2023-02-01T09:18:24;95838.84;;;6.49;57.18
30682;BME280;17439;48.092;11.842;2023-02-01T09:20:50;95833.72;;;6.53;57.15
30682;BME280;17439;48.092;11.842;2023-02-01T09:23:17;95830.97;;;6.58;57.15
30682;BME280;17439;48.092;11.842;2023-02-01T09:25:44;95828.53;;;6.67;56.37
30682;BME280;17439;48.092;11.842;2023-02-01T09:28:10;95846.03;;;6.69;56.48
30682;BME280;17439;48.092;11.842;2023-02-01T09:30:37;95832.81;;;6.73;56.13
30682;BME280;17439;48.092;11.842;2023-02-01T09:33:04;95820.94;;;6.74;55.85
30682;BME280;17439;48.092;11.842;2023-02-01T09:35:30;95812.06;;;6.74;55.43
30682;BME280;17439;48.092;11.842;2023-02-01T09:37:57;95822.81;;;6.79;56.22
30682;BME280;17439;48.092;11.842;2023-02-01T09:40:23;95836.81;;;6.86;56.60
30682;BME280;17439;48.092;11.842;2023-02-01T09:43:11;95828.41;;;6.93;55.71
30682;BME280;17439;48.092;11.842;2023-02-01T09:46:01;95831.88;;;6.98;55.58
30682;BME280;17439;48.092;11.842;2023-02-01T09:48:35;95835.16;;;6.95;55.27
30682;BME280;17439;48.092;11.842;2023-02-01T09:51:11;95845.94;;;6.95;54.29
30682;BME280;17439;48.092;11.842;2023-02-01T09:53:45;95829.97;;;7.04;54.74
30682;BME280;17439;48.092;11.842;2023-02-01T09:56:35;95844.19;;;7.15;55.33
30682;BME280;17439;48.092;11.842;2023-02-01T10:01:57;95837.19;;;7.14;54.24
30682;BME280;17439;48.092;11.842;2023-02-01T10:04:23;95815.56;;;7.24;54.35
30682;BME280;17439;48.092;11.842;2023-02-01T10:07:21;95832.75;;;7.28;54.15
30682;BME280;17439;48.092;11.842;2023-02-01T10:15:26;95824.63;;;7.33;53.10
30682;BME280;17439;48.092;11.842;2023-02-01T10:18:17;95814.09;;;7.37;52.50
30682;BME280;17439;48.092;11.842;2023-02-01T10:23:40;95816.66;;;7.52;53.11
30682;BME280;17439;48.092;11.842;2023-02-01T10:28:43;95825.03;;;7.56;53.67
30682;BME280;17439;48.092;11.842;2023-02-01T10:31:12;95823.34;;;7.60;54.22
30682;BME280;17439;48.092;11.842;2023-02-01T10:33:44;95818.22;;;7.63;52.92
30682;BME280;17439;48.092;11.842;2023-02-01T10:38:58;95828.41;;;7.67;51.87
30682;BME280;17439;48.092;11.842;2023-02-01T10:41:25;95841.50;;;7.54;52.07
30682;BME280;17439;48.092;11.842;2023-02-01T10:43:57;95844.66;;;7.61;52.88
30682;BME280;17439;48.092;11.842;2023-02-01T10:46:24;95843.88;;;7.61;53.15
30682;BME280;17439;48.092;11.842;2023-02-01T10:48:53;95837.91;;;7.64;52.25
30682;BME280;17439;48.092;11.842;2023-02-01T10:51:24;95844.38;;;7.63;52.86
30682;BME280;17439;48.092;11.842;2023-02-01T10:53:56;95833.88;;;7.61;52.82
30682;BME280;17439;48.092;11.842;2023-02-01T10:56:25;95829.03;;;7.58;52.90
30682;BME280;17439;48.092;11.842;2023-02-01T10:59:00;95839.25;;;7.61;52.83
30682;BME280;17439;48.092;11.842;2023-02-01T11:01:31;95834.44;;;7.58;52.78
30682;BME280;17439;48.092;11.842;2023-02-01T11:04:02;95840.88;;;7.62;52.63
30682;BME280;17439;48.092;11.842;2023-02-01T11:06:43;95837.06;;;7.69;52.02
30682;BME280;17439;48.092;11.842;2023-02-01T11:09:21;95872.19;;;7.63;51.99
30682;BME280;17439;48.092;11.842;2023-02-01T11:16:58;95831.72;;;7.58;52.14
30682;BME280;17439;48.092;11.842;2023-02-01T11:19:26;95852.53;;;7.58;53.29
30682;BME280;17439;48.092;11.842;2023-02-01T11:21:55;95858.72;;;7.58;52.79
30682;BME280;17439;48.092;11.842;2023-02-01T11:24:44;95851.72;;;7.57;52.50
30682;BME280;17439;48.092;11.842;2023-02-01T11:27:17;95858.44;;;7.60;53.10
30682;BME280;17439;48.092;11.842;2023-02-01T11:29:57;95864.91;;;7.64;53.35
30682;BME280;17439;48.092;11.842;2023-02-01T11:32:26;95851.16;;;7.60;52.87
30682;BME280;17439;48.092;11.842;2023-02-01T11:34:57;95855.19;;;7.63;52.78
30682;BME280;17439;48.092;11.842;2023-02-01T11:37:30;95861.41;;;7.63;53.39
30682;BME280;17439;48.092;11.842;2023-02-01T11:40:00;95865.69;;;7.65;52.97
30682;BME280;17439;48.092;11.842;2023-02-01T11:42:27;95856.78;;;7.64;52.43
30682;BME280;17439;48.092;11.842;2023-02-01T11:45:18;95850.91;;;7.57;52.05
30682;BME280;17439;48.092;11.842;2023-02-01T11:47:46;95861.69;;;7.57;52.94
30682;BME280;17439;48.092;11.842;2023-02-01T11:50:16;95854.69;;;7.56;53.03
30682;BME280;17439;48.092;11.842;2023-02-01T11:53:00;95860.66;;;7.53;53.10
30682;BME280;17439;48.092;11.842;2023-02-01T11:55:42;95865.00;;;7.49;53.67
30682;BME280;17439;48.092;11.842;2023-02-01T11:58:26;95839.41;;;7.46;53.16
30682;BME280;17439;48.092;11.842;2023-02-01T12:01:01;95844.28;;;7.39;53.60
30682;BME280;17439;48.092;11.842;2023-02-01T12:06:51;95843.28;;;7.30;53.41
30682;BME280;17439;48.092;11.842;2023-02-01T12:09:25;95817.13;;;7.30;53.32
30682;BME280;17439;48.092;11.842;2023-02-01T12:12:17;95822.91;;;7.13;53.41
30682;BME280;17439;48.092;11.842;2023-02-01T12:15:05;95807.22;;;7.15;53.40
30682;BME280;17439;48.092;11.842;2023-02-01T12:17:57;95816.66;;;7.18;54.24
30682;BME280;17439;48.092;11.842;2023-02-01T12:20:50;95800.16;;;7.24;53.31
30682;BME280;17439;48.092;11.842;2023-02-01T12:23:37;95794.28;;;7.17;53.59
30682;BME280;17439;48.092;11.842;2023-02-01T12:31:43;95807.19;;;7.25;53.65
30682;BME280;17439;48.092;11.842;2023-02-01T12:42:53;95806.03;;;7.32;53.10
30682;BME280;17439;48.092;11.842;2023-02-01T12:45:45;95827.06;;;7.35;53.80
30682;BME280;17439;48.092;11.842;2023-02-01T12:48:25;95798.53;;;7.23;52.73
30682;BME280;17439;48.092;11.842;2023-02-01T12:50:57;95798.00;;;7.26;52.51
30682;BME280;17439;48.092;11.842;2023-02-01T12:53:45;95796.66;;;7.24;52.61
30682;BME280;17439;48.092;11.842;2023-02-01T12:56:22;95788.88;;;7.22;52.96
30682;BME280;17439;48.092;11.842;2023-02-01T12:58:52;95791.00;;;7.20;53.51
30682;BME280;17439;48.092;11.842;2023-02-01T13:01:45;95787.31;;;7.11;53.08
30682;BME280;17439;48.092;11.842;2023-02-01T13:04:23;95770.44;;;6.95;52.15
30682;BME280;17439;48.092;11.842;2023-02-01T13:07:11;95777.91;;;7.08;53.52
30682;BME280;17439;48.092;11.842;2023-02-01T13:09:55;95773.31;;;7.09;52.67
30682;BME280;17439;48.092;11.842;2023-02-01T13:12:36;95763.69;;;6.98;52.08
30682;BME280;17439;48.092;11.842;2023-02-01T13:15:16;95791.13;;;7.05;53.16
30682;BME280;17439;48.092;11.842;2023-02-01T13:17:44;95778.97;;;7.07;52.76
30682;BME280;17439;48.092;11.842;2023-02-01T13:20:23;95769.84;;;7.03;52.44
30682;BME280;17439;48.092;11.842;2023-02-01T13:23:04;95766.34;;;7.03;52.52
30682;BME280;17439;48.092;11.842;2023-02-01T13:25:47;95769.81;;;7.08;52.28
30682;BME280;17439;48.092;11.842;2023-02-01T13:28:24;95774.69;;;7.06;52.51
30682;BME280;17439;48.092;11.842;2023-02-01T13:39:25;95770.59;;;7.09;53.22
30682;BME280;17439;48.092;11.842;2023-02-01T13:41:58;95761.97;;;7.12;53.32
30682;BME280;17439;48.092;11.842;2023-02-01T13:44:30;95765.78;;;7.06;52.61
30682;BME280;17439;48.092;11.842;2023-02-01T13:47:02;95789.19;;;7.11;53.61
30682;BME280;17439;48.092;11.842;2023-02-01T13:49:38;95770.88;;;7.07;53.37
30682;BME280;17439;48.092;11.842;2023-02-01T13:52:05;95760.66;;;7.10;53.85
30682;BME280;17439;48.092;11.842;2023-02-01T13:54:36;95774.13;;;7.04;53.83
30682;BME280;17439;48.092;11.842;2023-02-01T13:57:12;95776.00;;;7.09;54.31
30682;BME280;17439;48.092;11.842;2023-02-01T14:05:09;95774.69;;;7.06;54.53
30682;BME280;17439;48.092;11.842;2023-02-01T14:07:36;95772.22;;;7.10;54.52
30682;BME280;17439;48.092;11.842;2023-02-01T14:13:31;95769.81;;;7.08;54.58
30682;BME280;17439;48.092;11.842;2023-02-01T14:23:56;95763.34;;;7.10;54.99
30682;BME280;17439;48.092;11.842;2023-02-01T14:26:26;95759.81;;;7.09;54.80
30682;BME280;17439;48.092;11.842;2023-02-01T14:31:37;95756.31;;;7.08;54.72
30682;BME280;17439;48.092;11.842;2023-02-01T14:34:29;95765.22;;;7.09;55.04
30682;BME280;17439;48.092;11.842;2023-02-01T14:36:59;95766.03;;;7.10;54.25
30682;BME280;17439;48.092;11.842;2023-02-01T14:44:40;95777.66;;;7.00;54.14
30682;BME280;17439;48.092;11.842;2023-02-01T14:52:41;95772.56;;;6.98;53.09
30682;BME280;17439;48.092;11.842;2023-02-01T14:55:26;95768.88;;;6.89;52.73
30682;BME280;17439;48.092;11.842;2023-02-01T14:57:56;95784.16;;;6.99;52.87
30682;BME280;17439;48.092;11.842;2023-02-01T15:00:27;95791.69;;;7.02;52.81
30682;BME280;17439;48.092;11.842;2023-02-01T15:05:39;95770.44;;;6.95;52.65